Time;durP1;ratioP1;P1;durP2;ratioP2;P2;SDS_P1;SDS_P2;PMS_P1;PMS_P2;Temp;Humidity;BMP_temperature;BMP_pressure;BME280_temperature;BME280_humidity;BME280_pressure;Samples;Min_cycle;Max_cycle;Signal;HPM_P1;HPM_P2
2023/10/17 00:03:37;;;;;;;3.22;1.30;;;;;;;;;;8283778;28;20099;-72
2023/10/17 00:07:43;;;;;;;3.75;2.03;;;;;;;;;;8283491;28;20036;-73
2023/10/17 00:12:27;;;;;;;1.30;1.20;;;;;;;;;;8283746;28;20584;-72
2023/10/17 00:16:11;;;;;;;1.77;1.30;;;;;;;;;;8272406;28;20048;-73
2023/10/17 00:20:17;;;;;;;1.50;1.40;;;;;;;;;;8272349;28;20013;-72
2023/10/17 00:24:19;;;;;;;2.25;1.38;;;;;;;;;;8285478;28;20021;-73
2023/10/17 00:28:20;;;;;;;3.22;1.45;;;;;;;;;;8279895;28;20030;-72
2023/10/17 00:32:20;;;;;;;3.33;1.52;;;;;;;;;;8266262;28;20123;-72
2023/10/17 00:36:21;;;;;;;3.90;1.50;;;;;;;;;;8283791;28;20025;-72
2023/10/17 00:44:41;;;;;;;2.42;1.55;;;;;;;;;;8280589;28;20083;-72
2023/10/17 00:48:42;;;;;;;2.15;1.35;;;;;;;;;;8279567;28;20140;-73
2023/10/17 00:52:44;;;;;;;1.50;1.40;;;;;;;;;;8284024;28;20029;-73
2023/10/17 00:56:45;;;;;;;1.70;1.30;;;;;;;;;;8281144;28;20029;-73
2023/10/17 01:01:09;;;;;;;1.77;1.33;;;;;;;;;;8267479;28;20036;-72
2023/10/17 01:05:11;;;;;;;2.55;1.23;;;;;;;;;;8280111;28;20108;-72
2023/10/17 01:09:24;;;;;;;1.90;1.40;;;;;;;;;;8280204;28;20811;-73
2023/10/17 01:13:27;;;;;;;1.92;1.40;;;;;;;;;;8281723;28;20109;-73
2023/10/17 01:17:28;;;;;;;1.80;1.55;;;;;;;;;;8279925;28;21992;-73
2023/10/17 01:21:28;;;;;;;1.75;1.55;;;;;;;;;;8280221;28;20024;-73
2023/10/17 01:25:35;;;;;;;1.75;1.60;;;;;;;;;;8279877;28;20025;-73
2023/10/17 01:29:35;;;;;;;1.60;1.40;;;;;;;;;;8281334;28;20515;-73
2023/10/17 01:33:35;;;;;;;1.30;1.20;;;;;;;;;;8280608;28;20048;-72
2023/10/17 01:37:36;;;;;;;4.60;1.52;;;;;;;;;;8272936;28;20025;-73
2023/10/17 01:41:38;;;;;;;1.52;1.33;;;;;;;;;;8281791;28;20031;-73
2023/10/17 01:45:42;;;;;;;3.40;1.40;;;;;;;;;;8272082;28;20059;-73
2023/10/17 01:49:42;;;;;;;2.35;1.40;;;;;;;;;;8276390;28;20998;-73
2023/10/17 01:53:45;;;;;;;1.98;1.35;;;;;;;;;;8284966;28;20983;-73
2023/10/17 01:57:46;;;;;;;1.98;1.30;;;;;;;;;;8282221;28;20047;-73
2023/10/17 02:01:48;;;;;;;2.45;1.42;;;;;;;;;;8279681;28;20869;-73
2023/10/17 02:05:49;;;;;;;2.88;1.77;;;;;;;;;;8279774;28;20106;-73
2023/10/17 02:09:54;;;;;;;3.88;1.67;;;;;;;;;;8279725;28;20029;-72
2023/10/17 02:13:56;;;;;;;1.95;1.30;;;;;;;;;;8282058;28;20044;-72
2023/10/17 02:17:57;;;;;;;2.70;1.80;;;;;;;;;;8279106;28;22156;-73
2023/10/17 02:21:58;;;;;;;2.13;1.90;;;;;;;;;;8280725;28;20131;-72
2023/10/17 02:26:00;;;;;;;1.65;1.50;;;;;;;;;;8264648;28;20075;-73
2023/10/17 02:30:03;;;;;;;2.42;1.77;;;;;;;;;;8267145;28;20128;-73
2023/10/17 02:34:03;;;;;;;1.92;1.73;;;;;;;;;;8281744;28;20037;-72
2023/10/17 02:38:05;;;;;;;1.67;1.30;;;;;;;;;;8281776;28;20029;-73
2023/10/17 02:42:08;;;;;;;2.55;1.83;;;;;;;;;;8281307;28;20263;-72
2023/10/17 02:46:08;;;;;;;1.58;1.48;;;;;;;;;;8276861;28;21030;-72
2023/10/17 02:50:22;;;;;;;4.20;1.95;;;;;;;;;;8265571;28;20029;-72
2023/10/17 02:54:27;;;;;;;4.00;1.92;;;;;;;;;;8276676;28;20021;-72
2023/10/17 02:58:28;;;;;;;1.90;1.73;;;;;;;;;;8282329;28;20896;-73
2023/10/17 03:02:37;;;;;;;3.47;2.05;;;;;;;;;;8277137;28;20022;-72
2023/10/17 03:06:38;;;;;;;3.65;2.08;;;;;;;;;;8279102;28;20107;-72
2023/10/17 03:10:39;;;;;;;2.03;1.67;;;;;;;;;;8268012;28;20550;-73
2023/10/17 03:18:49;;;;;;;3.38;2.20;;;;;;;;;;8290737;28;20112;-73
2023/10/17 03:22:50;;;;;;;;;;;;;;;;;;8287628;28;20033;-73
2023/10/17 03:27:04;;;;;;;2.10;1.83;;;;;;;;;;8278606;28;19921;-73
2023/10/17 03:31:10;;;;;;;2.72;1.77;;;;;;;;;;8284169;28;20037;-74
2023/10/17 03:35:20;;;;;;;3.45;1.58;;;;;;;;;;8275653;28;20029;-72
2023/10/17 03:39:21;;;;;;;3.72;2.08;;;;;;;;;;8288862;28;20049;-73
2023/10/17 03:43:22;;;;;;;2.70;1.95;;;;;;;;;;8271744;28;20021;-73
2023/10/17 03:47:22;;;;;;;4.53;2.30;;;;;;;;;;8285886;28;20504;-72
2023/10/17 03:51:24;;;;;;;3.28;1.63;;;;;;;;;;8283245;28;20604;-72
2023/10/17 03:55:24;;;;;;;1.83;1.73;;;;;;;;;;8287038;28;20068;-73
2023/10/17 03:59:31;;;;;;;3.85;1.77;;;;;;;;;;8283798;28;20037;-73
2023/10/17 04:03:31;;;;;;;2.15;1.95;;;;;;;;;;8284439;28;20029;-73
2023/10/17 04:07:32;;;;;;;2.38;1.90;;;;;;;;;;8285154;28;20167;-72
2023/10/17 04:11:36;;;;;;;2.65;1.80;;;;;;;;;;8271803;28;20032;-73
2023/10/17 04:15:42;;;;;;;1.98;1.77;;;;;;;;;;8283358;28;20925;-72
2023/10/17 04:19:42;;;;;;;2.58;1.80;;;;;;;;;;8266098;28;20033;-73
2023/10/17 04:23:43;;;;;;;3.45;1.80;;;;;;;;;;8282576;28;20032;-72
2023/10/17 04:27:45;;;;;;;1.88;1.58;;;;;;;;;;8284351;28;20741;-72
2023/10/17 04:31:47;;;;;;;2.00;1.80;;;;;;;;;;8283665;28;20103;-72
2023/10/17 04:35:47;;;;;;;2.53;1.80;;;;;;;;;;8278279;28;20859;-73
2023/10/17 04:39:55;;;;;;;2.85;2.25;;;;;;;;;;8286270;28;20143;-72
2023/10/17 04:43:55;;;;;;;3.67;2.20;;;;;;;;;;8283206;28;20037;-73
2023/10/17 04:48:11;;;;;;;3.85;2.75;;;;;;;;;;8283865;28;20036;-73
2023/10/17 04:52:40;;;;;;;6.30;2.63;;;;;;;;;;8273232;28;20380;-73
2023/10/17 04:56:52;;;;;;;3.50;2.38;;;;;;;;;;8285296;28;20029;-72
2023/10/17 05:09:26;;;;;;;3.87;2.30;;;;;;;;;;8280802;28;20041;-72
2023/10/17 06:18:17;;;;;;;2.15;1.88;;;;;;;;;;8243135;28;20103;-73
2023/10/17 06:23:23;;;;;;;2.00;1.80;;;;;;;;;;8277476;28;20029;-72
2023/10/17 06:26:59;;;;;;;2.35;1.52;;;;;;;;;;8278729;28;20655;-73
2023/10/17 06:35:31;;;;;;;4.70;2.05;;;;;;;;;;8277942;28;20044;-73
2023/10/17 06:39:36;;;;;;;2.42;2.00;;;;;;;;;;8277128;28;21129;-72
2023/10/17 06:43:38;;;;;;;2.88;2.08;;;;;;;;;;8278475;28;20051;-72
2023/10/17 06:47:42;;;;;;;4.00;2.00;;;;;;;;;;8279509;28;20098;-73
2023/10/17 06:51:50;;;;;;;3.67;1.90;;;;;;;;;;8278557;28;20009;-73
2023/10/17 06:55:58;;;;;;;2.00;1.80;;;;;;;;;;8280088;28;20025;-73
2023/10/17 07:00:15;;;;;;;3.28;1.90;;;;;;;;;;8278568;28;20136;-73
2023/10/17 07:04:16;;;;;;;2.55;1.90;;;;;;;;;;8278253;28;20143;-73
2023/10/17 07:08:22;;;;;;;2.22;2.03;;;;;;;;;;8278119;28;20555;-73
2023/10/17 07:12:22;;;;;;;6.00;2.10;;;;;;;;;;8276063;28;20690;-73
2023/10/17 07:16:25;;;;;;;2.67;1.98;;;;;;;;;;8276832;28;20172;-73
2023/10/17 07:24:48;;;;;;;2.58;2.00;;;;;;;;;;8277968;28;20036;-73
2023/10/17 07:28:50;;;;;;;3.38;1.88;;;;;;;;;;8276273;28;20030;-73
2023/10/17 07:32:54;;;;;;;2.33;1.75;;;;;;;;;;8276903;28;20075;-73
2023/10/17 07:36:58;;;;;;;;;;;;;;;;;;8277247;28;20036;-73
2023/10/17 07:40:58;;;;;;;3.13;1.70;;;;;;;;;;8277339;28;19964;-72
2023/10/17 07:45:02;;;;;;;2.92;2.15;;;;;;;;;;8260578;28;20033;-73
2023/10/17 07:49:06;;;;;;;3.60;1.67;;;;;;;;;;8276483;28;20080;-72
2023/10/17 07:53:06;;;;;;;4.05;2.33;;;;;;;;;;8261993;28;20033;-73
2023/10/17 07:57:06;;;;;;;4.18;2.22;;;;;;;;;;8282549;28;20025;-72
2023/10/17 08:01:14;;;;;;;2.23;2.03;;;;;;;;;;8280376;28;20807;-73
2023/10/17 08:05:17;;;;;;;2.45;2.10;;;;;;;;;;8284277;28;20288;-73
2023/10/17 08:13:23;;;;;;;5.60;2.40;;;;;;;;;;8280090;28;20028;-72
2023/10/17 08:17:34;;;;;;;2.53;1.98;;;;;;;;;;8283739;28;20045;-72
2023/10/17 08:21:35;;;;;;;3.95;2.15;;;;;;;;;;8285824;28;20961;-72
2023/10/17 08:25:54;;;;;;;2.33;2.05;;;;;;;;;;8275434;28;20135;-73
2023/10/17 08:30:00;;;;;;;4.25;1.90;;;;;;;;;;8280725;28;20040;-72
2023/10/17 08:38:12;;;;;;;4.28;2.13;;;;;;;;;;8281916;28;20025;-73
2023/10/17 08:42:12;;;;;;;3.42;2.40;;;;;;;;;;8282331;28;20136;-72
2023/10/17 08:46:12;;;;;;;3.97;2.33;;;;;;;;;;8283612;28;20589;-73
2023/10/17 08:50:15;;;;;;;2.85;1.98;;;;;;;;;;8279685;28;20021;-73
2023/10/17 08:54:18;;;;;;;4.88;2.15;;;;;;;;;;8284370;28;20032;-73
2023/10/17 08:58:24;;;;;;;3.57;2.20;;;;;;;;;;8270969;28;20461;-73
2023/10/17 09:10:38;;;;;;;5.22;2.50;;;;;;;;;;8281151;28;20025;-73
2023/10/17 09:14:38;;;;;;;3.03;2.08;;;;;;;;;;8281076;28;20147;-72
2023/10/17 09:18:47;;;;;;;2.47;2.00;;;;;;;;;;8280113;28;20102;-72
2023/10/17 09:22:47;;;;;;;3.00;2.38;;;;;;;;;;8280328;28;20036;-72
2023/10/17 09:26:48;;;;;;;2.97;2.08;;;;;;;;;;8279262;28;20911;-73
2023/10/17 09:30:56;;;;;;;4.55;2.28;;;;;;;;;;8278852;28;20079;-73
2023/10/17 09:34:57;;;;;;;3.33;2.05;;;;;;;;;;8262308;28;20069;-72
2023/10/17 09:38:58;;;;;;;2.42;2.22;;;;;;;;;;8281692;28;20067;-72
2023/10/17 09:43:00;;;;;;;7.15;2.30;;;;;;;;;;8281096;28;20176;-73
2023/10/17 09:47:01;;;;;;;3.28;2.40;;;;;;;;;;8262393;28;20867;-73
2023/10/17 09:51:02;;;;;;;2.50;2.10;;;;;;;;;;8281993;28;20030;-72
2023/10/17 09:55:06;;;;;;;3.40;2.55;;;;;;;;;;8262498;28;20039;-73
2023/10/17 09:59:11;;;;;;;2.28;2.08;;;;;;;;;;8273207;28;20130;-73
2023/10/17 10:03:12;;;;;;;5.82;2.42;;;;;;;;;;8282330;28;20056;-73
2023/10/17 10:07:20;;;;;;;3.75;2.28;;;;;;;;;;8277075;28;20028;-73
2023/10/17 10:11:21;;;;;;;5.30;2.50;;;;;;;;;;8279817;28;20641;-72
2023/10/17 10:15:41;;;;;;;3.17;2.20;;;;;;;;;;8277879;28;21010;-73
2023/10/17 10:19:41;;;;;;;3.15;2.40;;;;;;;;;;8266339;28;20057;-72
2023/10/17 10:23:43;;;;;;;3.25;2.47;;;;;;;;;;8277029;28;20029;-72
2023/10/17 10:27:43;;;;;;;3.13;2.30;;;;;;;;;;8277944;28;20435;-73
2023/10/17 10:31:43;;;;;;;4.15;2.53;;;;;;;;;;8279078;28;20037;-72
2023/10/17 10:35:45;;;;;;;4.67;2.30;;;;;;;;;;8279993;28;20017;-73
2023/10/17 10:40:05;;;;;;;5.47;2.70;;;;;;;;;;8278029;28;20396;-73
2023/10/17 10:44:06;;;;;;;2.92;2.40;;;;;;;;;;8278839;28;20426;-73
2023/10/17 10:48:14;;;;;;;3.00;2.40;;;;;;;;;;8280266;28;20469;-73
2023/10/17 10:52:14;;;;;;;2.58;2.38;;;;;;;;;;8278544;28;20026;-73
2023/10/17 10:56:15;;;;;;;5.30;2.50;;;;;;;;;;8280364;28;20025;-73
2023/10/17 11:00:17;;;;;;;4.65;2.42;;;;;;;;;;8274779;28;20029;-73
2023/10/17 11:04:17;;;;;;;5.45;2.33;;;;;;;;;;8276958;28;20044;-73
2023/10/17 11:08:17;;;;;;;7.65;2.67;;;;;;;;;;8276788;28;20034;-74
2023/10/17 11:12:20;;;;;;;4.65;2.60;;;;;;;;;;8277278;28;20034;-73
2023/10/17 11:16:24;;;;;;;4.20;2.60;;;;;;;;;;8275967;28;20911;-73
2023/10/17 11:20:25;;;;;;;5.70;2.90;;;;;;;;;;8275123;28;20026;-73
2023/10/17 11:24:26;;;;;;;5.75;2.78;;;;;;;;;;8279111;28;20037;-73
2023/10/17 11:28:29;;;;;;;3.92;2.80;;;;;;;;;;8276501;28;20044;-73
2023/10/17 11:32:31;;;;;;;4.85;2.83;;;;;;;;;;8267189;28;20033;-73
2023/10/17 11:36:46;;;;;;;5.70;3.03;;;;;;;;;;8284485;28;20045;-73
2023/10/17 11:40:48;;;;;;;3.47;3.07;;;;;;;;;;8283434;28;20029;-73
2023/10/17 11:44:48;;;;;;;5.40;3.05;;;;;;;;;;8284233;28;20027;-73
2023/10/17 11:48:51;;;;;;;3.70;2.80;;;;;;;;;;8284098;28;20068;-73
2023/10/17 11:52:52;;;;;;;3.50;3.05;;;;;;;;;;8284145;28;20041;-73
2023/10/17 11:56:54;;;;;;;6.28;3.22;;;;;;;;;;8268034;28;20043;-73
2023/10/17 12:00:55;;;;;;;5.20;2.95;;;;;;;;;;8284697;28;20099;-73
2023/10/17 12:04:55;;;;;;;5.47;2.95;;;;;;;;;;8282507;28;20036;-73
2023/10/17 12:08:55;;;;;;;4.15;3.03;;;;;;;;;;8282512;28;20111;-73
2023/10/17 12:13:04;;;;;;;6.65;2.60;;;;;;;;;;8281025;28;20152;-73
2023/10/17 12:17:08;;;;;;;4.97;2.50;;;;;;;;;;8284211;28;20151;-73
2023/10/17 12:21:14;;;;;;;4.10;3.15;;;;;;;;;;8281171;28;20025;-73
2023/10/17 12:25:16;;;;;;;3.88;2.33;;;;;;;;;;8280662;28;20053;-73
2023/10/17 12:29:16;;;;;;;3.88;2.83;;;;;;;;;;8281193;28;20025;-73
2023/10/17 12:33:22;;;;;;;5.47;2.90;;;;;;;;;;8279292;28;20037;-73
2023/10/17 12:37:22;;;;;;;4.85;2.60;;;;;;;;;;8270764;28;20028;-73
2023/10/17 12:41:22;;;;;;;3.05;2.63;;;;;;;;;;8279597;28;20018;-73
2023/10/17 12:45:24;;;;;;;4.82;2.80;;;;;;;;;;8281118;28;20041;-73
2023/10/17 12:49:24;;;;;;;4.53;2.83;;;;;;;;;;8280490;28;20734;-73
2023/10/17 12:53:24;;;;;;;3.75;2.75;;;;;;;;;;8283730;28;20021;-73
2023/10/17 12:57:24;;;;;;;3.58;2.78;;;;;;;;;;8279004;28;20029;-72
2023/10/17 13:01:25;;;;;;;7.72;2.65;;;;;;;;;;8280701;28;20043;-73
2023/10/17 13:05:26;;;;;;;6.75;2.22;;;;;;;;;;8265627;28;20033;-73
2023/10/17 13:09:26;;;;;;;4.30;2.33;;;;;;;;;;8279539;28;20025;-73
2023/10/17 13:13:26;;;;;;;2.42;2.13;;;;;;;;;;8279023;28;20045;-73
2023/10/17 13:17:28;;;;;;;4.60;2.80;;;;;;;;;;8281117;28;20048;-73
2023/10/17 13:21:28;;;;;;;6.50;2.50;;;;;;;;;;8279392;28;20756;-73
2023/10/17 13:25:35;;;;;;;2.50;2.30;;;;;;;;;;8277483;28;20080;-73
2023/10/17 13:29:36;;;;;;;3.08;2.78;;;;;;;;;;8278869;28;20024;-73
2023/10/17 13:33:41;;;;;;;4.28;2.90;;;;;;;;;;8277742;28;20073;-73
2023/10/17 13:37:51;;;;;;;3.40;2.53;;;;;;;;;;8279809;28;20104;-73
2023/10/17 13:41:51;;;;;;;3.80;2.70;;;;;;;;;;8279346;28;20021;-73
2023/10/17 13:45:52;;;;;;;4.45;2.60;;;;;;;;;;8279331;28;20052;-73
2023/10/17 13:49:53;;;;;;;5.05;2.72;;;;;;;;;;8278001;28;20029;-73
2023/10/17 13:53:53;;;;;;;5.03;2.90;;;;;;;;;;8279200;28;20068;-73
2023/10/17 13:58:01;;;;;;;2.80;2.45;;;;;;;;;;8279745;28;20110;-73
2023/10/17 14:02:01;;;;;;;4.40;2.65;;;;;;;;;;8280244;28;20065;-73
2023/10/17 14:06:01;;;;;;;3.03;2.70;;;;;;;;;;8280074;28;20065;-73
2023/10/17 14:10:09;;;;;;;;;;;;;;;;;;8279568;28;20032;-73
2023/10/17 14:14:10;;;;;;;4.28;2.72;;;;;;;;;;8277459;28;20011;-73
2023/10/17 14:18:13;;;;;;;4.03;2.63;;;;;;;;;;8275732;28;20774;-73
2023/10/17 14:22:38;;;;;;;7.13;2.75;;;;;;;;;;8274588;28;20099;-72
2023/10/17 14:26:38;;;;;;;;;;;;;;;;;;8261073;28;20029;-73
2023/10/17 14:30:41;;;;;;;4.05;2.80;;;;;;;;;;8276483;28;19925;-73
2023/10/17 14:34:41;;;;;;;10.88;3.58;;;;;;;;;;8276155;28;20079;-73
2023/10/17 14:38:42;;;;;;;4.63;2.67;;;;;;;;;;8277379;28;20837;-72
2023/10/17 14:42:44;;;;;;;4.10;2.78;;;;;;;;;;8276118;28;20032;-73
2023/10/17 14:46:44;;;;;;;3.30;2.70;;;;;;;;;;8279722;28;20029;-73
2023/10/17 14:50:44;;;;;;;3.27;2.60;;;;;;;;;;8276452;28;20029;-73
2023/10/17 14:54:45;;;;;;;3.75;2.60;;;;;;;;;;8265249;28;20549;-73
2023/10/17 14:58:49;;;;;;;4.03;2.40;;;;;;;;;;8263579;28;20025;-73
2023/10/17 15:02:50;;;;;;;4.22;2.67;;;;;;;;;;8276120;28;20037;-74
2023/10/17 15:06:53;;;;;;;5.55;3.03;;;;;;;;;;8281321;28;20028;-73
2023/10/17 15:10:54;;;;;;;3.60;2.50;;;;;;;;;;8282351;28;20032;-74
2023/10/17 15:14:55;;;;;;;3.57;2.33;;;;;;;;;;8282919;28;20044;-73
2023/10/17 15:18:55;;;;;;;3.50;2.50;;;;;;;;;;8282546;28;20276;-73
2023/10/17 15:22:56;;;;;;;4.43;2.33;;;;;;;;;;8285001;28;20021;-73
2023/10/17 15:26:58;;;;;;;4.22;2.20;;;;;;;;;;8284422;28;20118;-73
2023/10/17 15:31:08;;;;;;;2.70;2.10;;;;;;;;;;8287458;28;20609;-73
2023/10/17 15:35:14;;;;;;;4.55;2.70;;;;;;;;;;8284022;28;20513;-74
2023/10/17 15:39:15;;;;;;;5.80;2.03;;;;;;;;;;8284314;28;20025;-74
2023/10/17 15:43:16;;;;;;;2.42;2.20;;;;;;;;;;8284211;28;20029;-73
2023/10/17 15:47:16;;;;;;;3.60;1.90;;;;;;;;;;8283602;28;20036;-73
2023/10/17 15:51:17;;;;;;;2.97;2.10;;;;;;;;;;8283003;28;20036;-73
2023/10/17 15:55:18;;;;;;;2.60;2.40;;;;;;;;;;8286798;28;20564;-73
2023/10/17 15:59:18;;;;;;;2.60;2.08;;;;;;;;;;8277879;28;20022;-74
2023/10/17 16:03:19;;;;;;;3.20;2.03;;;;;;;;;;8281770;28;20056;-73
2023/10/17 16:07:19;;;;;;;5.68;1.85;;;;;;;;;;8281187;28;20017;-74
2023/10/17 16:11:21;;;;;;;3.00;1.98;;;;;;;;;;8281971;28;20886;-74
2023/10/17 16:15:21;;;;;;;6.00;2.33;;;;;;;;;;8264797;28;20021;-73
2023/10/17 16:19:24;;;;;;;2.00;1.75;;;;;;;;;;8264385;28;21021;-73
2023/10/17 16:23:24;;;;;;;2.15;1.90;;;;;;;;;;8281773;28;20018;-73
2023/10/17 16:27:24;;;;;;;4.43;1.90;;;;;;;;;;8266092;28;20024;-73
2023/10/17 16:31:25;;;;;;;1.90;1.70;;;;;;;;;;8281040;28;20033;-73
2023/10/17 16:35:25;;;;;;;2.65;1.50;;;;;;;;;;8280310;28;20048;-73
2023/10/17 16:39:25;;;;;;;5.10;1.80;;;;;;;;;;8281596;28;20126;-73
2023/10/17 16:43:28;;;;;;;3.35;1.80;;;;;;;;;;8282115;28;20024;-73
2023/10/17 16:47:28;;;;;;;3.03;2.00;;;;;;;;;;8270505;28;20116;-73
2023/10/17 16:51:30;;;;;;;2.10;1.90;;;;;;;;;;8280748;28;20053;-73
2023/10/17 16:55:31;;;;;;;3.60;1.98;;;;;;;;;;8279392;28;21678;-73
2023/10/17 16:59:31;;;;;;;4.43;2.20;;;;;;;;;;8279441;28;20889;-73
2023/10/17 17:03:31;;;;;;;4.78;2.20;;;;;;;;;;8279909;28;21004;-72
2023/10/17 17:07:31;;;;;;;3.25;2.10;;;;;;;;;;8281154;28;20024;-72
2023/10/17 17:11:31;;;;;;;3.13;1.90;;;;;;;;;;8280004;28;20090;-73
2023/10/17 17:15:32;;;;;;;3.42;1.90;;;;;;;;;;8259907;28;20977;-74
2023/10/17 17:19:32;;;;;;;2.45;2.10;;;;;;;;;;8279584;28;20017;-72
2023/10/17 17:23:32;;;;;;;3.17;2.20;;;;;;;;;;8279932;28;20041;-73
2023/10/17 17:27:34;;;;;;;2.95;1.70;;;;;;;;;;8280687;28;20829;-73
2023/10/17 17:31:35;;;;;;;2.95;2.00;;;;;;;;;;8265159;28;20064;-73
2023/10/17 17:35:35;;;;;;;2.10;1.67;;;;;;;;;;8280650;28;20071;-73
2023/10/17 17:39:35;;;;;;;2.28;1.52;;;;;;;;;;8278939;28;20148;-72
2023/10/17 17:43:35;;;;;;;1.90;1.70;;;;;;;;;;8271764;28;20451;-73
2023/10/17 17:47:38;;;;;;;2.13;1.75;;;;;;;;;;8281557;28;20275;-73
2023/10/17 17:51:40;;;;;;;5.28;1.70;;;;;;;;;;8279666;28;20044;-73
2023/10/17 17:55:40;;;;;;;2.40;1.75;;;;;;;;;;8281230;28;20733;-73
2023/10/17 17:59:40;;;;;;;2.20;1.63;;;;;;;;;;8277385;28;20032;-73
2023/10/17 18:03:40;;;;;;;5.32;2.47;;;;;;;;;;8279502;28;20819;-73
2023/10/17 18:07:41;;;;;;;3.58;1.90;;;;;;;;;;8281122;28;20018;-73
2023/10/17 18:11:41;;;;;;;6.35;2.08;;;;;;;;;;8279547;28;20036;-73
2023/10/17 18:15:41;;;;;;;5.03;2.40;;;;;;;;;;8277153;28;20055;-73
2023/10/17 18:19:41;;;;;;;6.28;2.30;;;;;;;;;;8278690;28;20456;-73
2023/10/17 18:23:44;;;;;;;6.82;1.90;;;;;;;;;;8278937;28;20555;-73
2023/10/17 18:27:45;;;;;;;3.10;2.00;;;;;;;;;;8278946;28;20112;-73
2023/10/17 18:31:46;;;;;;;3.17;1.77;;;;;;;;;;8278039;28;20068;-73
2023/10/17 18:35:46;;;;;;;2.53;1.80;;;;;;;;;;8280739;28;20145;-73
2023/10/17 18:39:46;;;;;;;4.65;2.42;;;;;;;;;;8279780;28;20813;-73
2023/10/17 18:43:47;;;;;;;5.32;1.95;;;;;;;;;;8278866;28;20056;-72
2023/10/17 18:47:47;;;;;;;4.18;2.15;;;;;;;;;;8280777;28;20068;-73
2023/10/17 18:51:47;;;;;;;2.13;1.80;;;;;;;;;;8280746;28;20032;-73
2023/10/17 18:55:48;;;;;;;2.75;2.00;;;;;;;;;;8282280;28;20067;-72
2023/10/17 18:59:48;;;;;;;4.10;1.90;;;;;;;;;;8285238;28;20026;-73
2023/10/17 19:03:48;;;;;;;3.40;2.08;;;;;;;;;;8284351;28;20033;-73
2023/10/17 19:07:48;;;;;;;2.95;1.92;;;;;;;;;;8284649;28;20032;-73
2023/10/17 19:11:48;;;;;;;2.28;2.08;;;;;;;;;;8288300;28;20025;-73
2023/10/17 19:15:49;;;;;;;2.83;1.90;;;;;;;;;;8283582;28;20048;-73
2023/10/17 19:19:49;;;;;;;2.47;2.10;;;;;;;;;;8284509;28;20025;-73
2023/10/17 19:23:50;;;;;;;3.22;2.33;;;;;;;;;;8280850;28;20032;-73
2023/10/17 19:27:50;;;;;;;21.50;9.30;;;;;;;;;;8285467;28;20313;-73
2023/10/17 19:31:51;;;;;;;8.88;4.78;;;;;;;;;;8316951;28;20107;-73
2023/10/17 19:35:51;;;;;;;9.23;4.90;;;;;;;;;;8326443;28;20041;-72
2023/10/17 19:39:52;;;;;;;7.28;3.75;;;;;;;;;;8321179;28;20017;-72
2023/10/17 19:43:52;;;;;;;7.43;2.95;;;;;;;;;;8324222;28;20025;-73
2023/10/17 19:47:52;;;;;;;4.57;2.67;;;;;;;;;;8331668;28;20050;-74
2023/10/17 19:51:54;;;;;;;3.58;2.45;;;;;;;;;;8323628;28;20029;-73
2023/10/17 19:55:54;;;;;;;2.85;2.40;;;;;;;;;;8342155;28;20053;-75
2023/10/17 19:59:55;;;;;;;6.43;2.70;;;;;;;;;;8342122;28;20030;-75
2023/10/17 20:03:55;;;;;;;3.72;2.25;;;;;;;;;;8343087;28;20047;-74
2023/10/17 20:07:56;;;;;;;5.35;2.28;;;;;;;;;;8320618;28;21031;-73
2023/10/17 20:11:56;;;;;;;2.78;1.98;;;;;;;;;;8335174;28;20059;-73
2023/10/17 20:15:57;;;;;;;3.13;1.73;;;;;;;;;;8332717;28;20050;-74
2023/10/17 20:19:57;;;;;;;3.60;2.10;;;;;;;;;;8305067;28;22159;-74
2023/10/17 20:23:57;;;;;;;2.83;2.00;;;;;;;;;;8318277;28;20040;-75
2023/10/17 20:27:57;;;;;;;2.47;2.00;;;;;;;;;;8312757;28;20060;-74
2023/10/17 20:31:57;;;;;;;2.00;1.80;;;;;;;;;;8318125;28;20064;-73
2023/10/17 20:36:02;;;;;;;1.95;1.80;;;;;;;;;;8349079;28;20067;-74
2023/10/17 20:40:11;;;;;;;5.28;1.65;;;;;;;;;;8337221;28;20018;-76
2023/10/17 20:44:11;;;;;;;1.85;1.60;;;;;;;;;;8327890;28;20017;-75
2023/10/17 20:48:11;;;;;;;2.35;1.90;;;;;;;;;;8319070;28;20069;-73
2023/10/17 20:52:11;;;;;;;2.70;1.80;;;;;;;;;;8310426;28;20547;-73
2023/10/17 20:56:12;;;;;;;3.70;1.73;;;;;;;;;;8315440;28;20032;-72
2023/10/17 21:00:13;;;;;;;2.78;1.80;;;;;;;;;;8336062;28;20138;-75
2023/10/17 21:04:13;;;;;;;2.05;1.67;;;;;;;;;;8303902;28;20337;-73
2023/10/17 21:08:14;;;;;;;3.40;1.80;;;;;;;;;;8276796;28;20024;-72
2023/10/17 21:12:15;;;;;;;1.88;1.77;;;;;;;;;;8287572;28;20028;-71
2023/10/17 21:16:16;;;;;;;2.53;1.80;;;;;;;;;;8288835;28;20041;-72
2023/10/17 21:20:16;;;;;;;2.45;1.85;;;;;;;;;;8288555;28;20025;-72
2023/10/17 21:24:17;;;;;;;3.15;1.90;;;;;;;;;;8292436;28;20029;-72
2023/10/17 21:28:17;;;;;;;3.08;1.58;;;;;;;;;;8293320;28;20036;-72
2023/10/17 21:32:18;;;;;;;6.18;1.98;;;;;;;;;;8291392;28;20544;-72
2023/10/17 21:36:18;;;;;;;5.97;1.85;;;;;;;;;;8292223;28;20059;-72
2023/10/17 21:40:19;;;;;;;2.03;1.70;;;;;;;;;;8293661;28;20025;-72
2023/10/17 21:44:19;;;;;;;3.15;1.75;;;;;;;;;;8278970;28;20014;-71
2023/10/17 21:48:19;;;;;;;4.50;2.10;;;;;;;;;;8295527;28;20033;-72
2023/10/17 21:52:19;;;;;;;2.50;1.80;;;;;;;;;;8297666;28;20466;-72
2023/10/17 21:56:19;;;;;;;2.15;1.77;;;;;;;;;;8297946;28;20136;-72
2023/10/17 22:00:28;;;;;;;2.30;1.95;;;;;;;;;;8293030;28;20021;-72
2023/10/17 22:04:29;;;;;;;3.85;2.13;;;;;;;;;;8292626;28;20791;-72
2023/10/17 22:08:29;;;;;;;4.70;1.80;;;;;;;;;;8290298;28;20029;-72
2023/10/17 22:12:29;;;;;;;2.40;1.85;;;;;;;;;;8284577;28;20024;-73
2023/10/17 22:16:31;;;;;;;2.65;2.05;;;;;;;;;;8269016;28;20561;-73
2023/10/17 22:20:32;;;;;;;2.97;2.08;;;;;;;;;;8280483;28;20029;-73
2023/10/17 22:24:32;;;;;;;2.88;1.80;;;;;;;;;;8263260;28;20029;-72
2023/10/17 22:28:35;;;;;;;2.70;1.85;;;;;;;;;;8280603;28;20745;-72
2023/10/17 22:32:36;;;;;;;3.45;2.05;;;;;;;;;;8279355;28;20065;-72
2023/10/17 22:36:37;;;;;;;3.78;2.15;;;;;;;;;;8279801;28;20033;-72
2023/10/17 22:40:37;;;;;;;2.17;1.90;;;;;;;;;;8278450;28;20088;-72
2023/10/17 22:44:37;;;;;;;2.42;1.98;;;;;;;;;;8278254;28;20032;-72
2023/10/17 22:48:38;;;;;;;3.97;1.70;;;;;;;;;;8275838;28;20806;-73
2023/10/17 22:52:38;;;;;;;3.90;2.28;;;;;;;;;;8278723;28;20029;-73
2023/10/17 22:56:38;;;;;;;2.10;1.90;;;;;;;;;;8279666;28;20029;-72
2023/10/17 23:00:39;;;;;;;1.83;1.42;;;;;;;;;;8267028;28;20257;-73
2023/10/17 23:04:39;;;;;;;1.83;1.70;;;;;;;;;;8279152;28;20034;-73
2023/10/17 23:08:40;;;;;;;3.92;1.70;;;;;;;;;;8277326;28;20892;-73
2023/10/17 23:12:40;;;;;;;3.60;2.10;;;;;;;;;;8280262;28;20026;-73
2023/10/17 23:16:40;;;;;;;5.32;2.42;;;;;;;;;;8278692;28;20512;-73
2023/10/17 23:20:40;;;;;;;4.13;2.35;;;;;;;;;;8275281;28;20331;-73
2023/10/17 23:24:40;;;;;;;3.17;2.20;;;;;;;;;;8276335;28;20148;-73
2023/10/17 23:28:41;;;;;;;6.32;3.53;;;;;;;;;;8285212;28;20025;-73
2023/10/17 23:32:43;;;;;;;7.80;3.00;;;;;;;;;;8284945;28;20160;-73
2023/10/17 23:36:44;;;;;;;5.90;3.30;;;;;;;;;;8284163;28;20027;-73
2023/10/17 23:40:44;;;;;;;4.85;2.80;;;;;;;;;;8286226;28;20059;-72
2023/10/17 23:44:44;;;;;;;3.70;2.63;;;;;;;;;;8285027;28;20021;-73
2023/10/17 23:48:45;;;;;;;6.35;3.35;;;;;;;;;;8282646;28;20119;-73
2023/10/17 23:52:46;;;;;;;7.65;3.25;;;;;;;;;;8287231;28;20531;-73
2023/10/17 23:56:47;;;;;;;3.47;2.28;;;;;;;;;;8282751;28;20089;-72
